createdAt,value
2018-11-02T00:00:07.378Z,34.90
2018-11-02T00:02:09.611Z,42.43
2018-11-02T00:04:11.815Z,37.83
2018-11-02T00:06:14.402Z,40.80
2018-11-02T00:08:16.658Z,37.37
2018-11-02T00:10:18.886Z,39.57
2018-11-02T00:12:21.136Z,41.97
2018-11-02T00:14:23.388Z,37.10
2018-11-02T00:16:25.721Z,39.57
2018-11-02T00:18:28.028Z,40.50
2018-11-02T00:20:30.276Z,38.30
2018-11-02T00:22:32.694Z,36.10
2018-11-02T00:24:34.980Z,38.83
2018-11-02T00:26:37.286Z,36.50
2018-11-02T00:28:39.590Z,37.33
2018-11-02T00:30:41.878Z,38.63
2018-11-02T00:32:44.202Z,34.80
2018-11-02T00:34:46.742Z,40.20
2018-11-02T00:36:49.004Z,36.00
2018-11-02T00:38:51.279Z,40.70
2018-11-02T00:40:53.699Z,31.60
2018-11-02T00:42:55.968Z,37.13
2018-11-02T00:44:58.281Z,34.13
2018-11-02T00:47:01.811Z,35.13
2018-11-02T00:49:04.540Z,35.67
2018-11-02T00:51:06.903Z,36.57
2018-11-02T00:53:09.964Z,38.60
2018-11-02T00:55:12.249Z,35.07
2018-11-02T00:57:14.604Z,37.33
2018-11-02T00:59:16.863Z,37.37
2018-11-02T01:01:19.118Z,32.03
2018-11-02T01:03:21.347Z,38.67
2018-11-02T01:05:23.752Z,38.67
2018-11-02T01:07:26.009Z,37.80
2018-11-02T01:09:28.269Z,39.50
2018-11-02T01:11:30.595Z,40.53
2018-11-02T01:13:32.912Z,38.07
2018-11-02T01:15:35.187Z,40.43
2018-11-02T01:17:37.518Z,41.20
2018-11-02T01:19:39.921Z,38.93
2018-11-02T01:21:42.287Z,39.30
2018-11-02T01:23:44.604Z,39.77
2018-11-02T01:25:46.896Z,48.13
2018-11-02T01:27:49.153Z,39.77
2018-11-02T01:29:51.799Z,42.40
2018-11-02T01:31:54.164Z,41.80
2018-11-02T01:33:56.475Z,40.47
2018-11-02T01:35:58.902Z,34.57
2018-11-02T01:38:01.194Z,33.10
2018-11-02T01:40:03.839Z,37.13
2018-11-02T01:42:06.586Z,35.33
2018-11-02T01:44:08.858Z,36.10
2018-11-02T01:46:11.115Z,32.40
2018-11-02T01:48:13.426Z,37.90
2018-11-02T01:50:15.709Z,32.00
2018-11-02T01:52:18.081Z,36.10
2018-11-02T01:54:20.402Z,38.50
2018-11-02T01:56:22.685Z,35.70
2018-11-02T01:58:24.982Z,32.30
2018-11-02T02:00:27.306Z,33.07
2018-11-02T02:02:29.630Z,34.90
2018-11-02T02:04:31.912Z,34.10
2018-11-02T02:06:34.272Z,31.60
2018-11-02T02:08:36.551Z,30.93
2018-11-02T02:10:38.820Z,33.60
2018-11-02T02:12:41.090Z,33.07
2018-11-02T02:14:43.313Z,31.37
2018-11-02T02:16:45.609Z,33.17
2018-11-02T02:18:47.927Z,32.63
2018-11-02T02:20:50.915Z,31.80
2018-11-02T02:22:53.235Z,34.10
2018-11-02T02:24:55.580Z,35.70
2018-11-02T02:26:57.879Z,33.13
2018-11-02T02:29:00.171Z,31.13
2018-11-02T02:31:02.466Z,29.67
2018-11-02T02:33:04.792Z,35.97
2018-11-02T02:35:08.012Z,32.50
2018-11-02T02:37:10.322Z,27.37
2018-11-02T02:39:12.706Z,27.87
2018-11-02T02:41:15.022Z,26.27
2018-11-02T02:43:17.355Z,29.47
2018-11-02T02:45:19.767Z,28.23
2018-11-02T02:47:22.070Z,25.93
2018-11-02T02:49:24.377Z,24.90
2018-11-02T02:51:26.677Z,28.83
2018-11-02T02:53:28.967Z,27.03
2018-11-02T02:55:31.287Z,25.93
2018-11-02T02:57:34.216Z,30.80
2018-11-02T02:59:36.711Z,26.10
2018-11-02T03:01:38.975Z,23.80
2018-11-02T03:03:41.318Z,26.03
2018-11-02T03:05:43.649Z,28.63
2018-11-02T03:07:45.954Z,24.13
2018-11-02T03:09:48.543Z,21.53
2018-11-02T03:11:50.741Z,27.93
2018-11-02T03:13:52.980Z,23.93
2018-11-02T03:15:55.458Z,21.33
2018-11-02T03:17:58.060Z,21.80
2018-11-02T03:20:00.343Z,21.57
2018-11-02T03:22:02.859Z,21.27
2018-11-02T03:24:05.090Z,20.53
2018-11-02T03:26:07.364Z,21.40
2018-11-02T03:28:09.664Z,22.57
2018-11-02T03:30:12.107Z,21.07
2018-11-02T03:32:14.376Z,18.90
2018-11-02T03:34:17.167Z,19.60
2018-11-02T03:36:19.508Z,23.57
2018-11-02T03:38:21.774Z,17.53
2018-11-02T03:40:24.038Z,17.87
2018-11-02T03:42:26.349Z,18.30
2018-11-02T03:44:28.607Z,19.30
2018-11-02T03:46:30.892Z,20.63
2018-11-02T03:48:33.180Z,18.13
2018-11-02T03:50:35.438Z,20.20
2018-11-02T03:52:37.664Z,19.23
2018-11-02T03:54:39.898Z,18.57
2018-11-02T03:56:42.205Z,15.83
2018-11-02T03:58:44.431Z,15.57
2018-11-02T04:00:46.750Z,18.20
2018-11-02T04:02:49.139Z,17.87
2018-11-02T04:04:51.420Z,15.70
2018-11-02T04:06:53.758Z,15.70
2018-11-02T04:08:56.048Z,22.17
2018-11-02T04:10:58.391Z,16.90
2018-11-02T04:13:00.611Z,17.57
2018-11-02T04:15:03.073Z,14.83
2018-11-02T04:17:05.478Z,14.20
2018-11-02T04:19:07.740Z,16.07
2018-11-02T04:21:10.044Z,14.40
2018-11-02T04:23:12.285Z,16.27
2018-11-02T04:25:14.532Z,16.37
2018-11-02T04:27:16.999Z,18.67
2018-11-02T04:29:19.353Z,16.17
2018-11-02T04:31:21.628Z,14.60
2018-11-02T04:33:23.974Z,16.67
2018-11-02T04:35:26.263Z,17.27
2018-11-02T04:37:28.565Z,14.47
2018-11-02T04:39:30.885Z,15.87
2018-11-02T04:41:33.134Z,19.50
2018-11-02T04:43:35.390Z,15.47
2018-11-02T04:45:38.070Z,16.20
2018-11-02T04:47:40.361Z,17.33
2018-11-02T04:49:42.647Z,16.97
2018-11-02T04:51:44.968Z,20.83
2018-11-02T04:53:47.275Z,14.63
2018-11-02T04:55:49.647Z,15.80
2018-11-02T04:57:51.842Z,18.83
2018-11-02T04:59:54.083Z,17.27
2018-11-02T05:01:56.370Z,16.93
2018-11-02T05:03:58.620Z,17.83
2018-11-02T05:06:00.916Z,17.47
2018-11-02T05:08:03.191Z,16.00
2018-11-02T05:10:05.916Z,14.57
2018-11-02T05:12:08.190Z,16.80
2018-11-02T05:14:10.461Z,15.37
2018-11-02T05:16:13.018Z,13.93
2018-11-02T05:18:15.321Z,15.73
2018-11-02T05:20:17.652Z,17.10
2018-11-02T05:22:19.903Z,14.03
2018-11-02T05:24:22.099Z,13.37
2018-11-02T05:26:24.332Z,14.27
2018-11-02T05:28:26.571Z,18.00
2018-11-02T05:30:28.830Z,17.20
2018-11-02T05:32:31.043Z,14.80
2018-11-02T05:34:33.358Z,13.57
2018-11-02T05:36:35.629Z,16.47
2018-11-02T05:39:02.462Z,12.73
2018-11-02T05:41:05.090Z,14.13
2018-11-02T05:43:07.353Z,15.40
2018-11-02T05:45:09.568Z,14.73
2018-11-02T05:47:11.884Z,15.20
2018-11-02T05:49:14.112Z,16.40
2018-11-02T05:51:16.390Z,15.37
2018-11-02T05:53:18.811Z,13.93
2018-11-02T05:55:21.106Z,15.57
2018-11-02T05:57:23.342Z,15.50
2018-11-02T05:59:25.634Z,15.00
2018-11-02T06:01:28.167Z,15.37
2018-11-02T06:03:30.351Z,18.70
2018-11-02T06:05:32.655Z,14.50
2018-11-02T06:07:35.125Z,16.63
2018-11-02T06:09:37.286Z,16.53
2018-11-02T06:11:39.526Z,14.70
2018-11-02T06:13:41.847Z,14.20
2018-11-02T06:15:44.206Z,17.33
2018-11-02T06:17:46.492Z,16.60
2018-11-02T06:19:48.758Z,14.40
2018-11-02T06:21:50.977Z,15.37
2018-11-02T06:23:53.319Z,15.10
2018-11-02T06:25:55.592Z,15.93
2018-11-02T06:27:57.851Z,15.03
2018-11-02T06:30:00.099Z,14.20
2018-11-02T06:32:02.340Z,16.30
2018-11-02T06:34:07.843Z,16.80
2018-11-02T06:36:10.922Z,15.53
2018-11-02T06:38:13.150Z,16.13
2018-11-02T06:40:15.422Z,15.23
2018-11-02T06:42:17.711Z,17.37
2018-11-02T06:44:20.031Z,17.83
2018-11-02T06:46:22.313Z,15.90
2018-11-02T06:48:24.674Z,15.50
2018-11-02T06:50:26.950Z,17.20
2018-11-02T06:52:30.131Z,18.37
2018-11-02T06:54:32.542Z,17.23
2018-11-02T06:56:34.836Z,15.90
2018-11-02T06:58:37.262Z,15.03
2018-11-02T07:00:40.457Z,19.70
2018-11-02T07:02:42.700Z,16.93
2018-11-02T07:04:45.842Z,16.90
2018-11-02T07:06:48.163Z,16.50
2018-11-02T07:08:51.394Z,18.70
2018-11-02T07:10:54.077Z,17.43
2018-11-02T07:12:56.315Z,14.60
2018-11-02T07:14:58.565Z,18.20
2018-11-02T07:17:00.878Z,16.60
2018-11-02T07:19:03.156Z,17.77
2018-11-02T07:21:05.494Z,14.57
2018-11-02T07:23:07.987Z,17.20
2018-11-02T07:25:11.050Z,20.13
2018-11-02T07:27:13.384Z,15.37
2018-11-02T07:29:15.699Z,18.17
2018-11-02T07:31:18.229Z,17.50
2018-11-02T07:33:21.074Z,14.60
2018-11-02T07:35:23.326Z,16.67
2018-11-02T07:37:25.608Z,14.37
2018-11-02T07:39:30.064Z,16.53
2018-11-02T07:41:32.394Z,16.37
2018-11-02T07:43:35.398Z,14.30
2018-11-02T07:45:37.672Z,17.57
2018-11-02T07:47:40.276Z,15.13
2018-11-02T07:49:43.042Z,14.33
2018-11-02T07:51:45.146Z,17.07
2018-11-02T07:53:47.388Z,14.53
2018-11-02T07:55:49.710Z,13.80
2018-11-02T07:57:51.959Z,17.97
2018-11-02T07:59:54.349Z,13.10
2018-11-02T08:01:56.630Z,13.07
2018-11-02T08:03:59.297Z,15.73
2018-11-02T08:06:01.250Z,14.20
2018-11-02T08:08:03.534Z,14.70
2018-11-02T08:10:05.956Z,15.30
2018-11-02T08:12:08.223Z,15.67
2018-11-02T08:14:10.800Z,15.67
2018-11-02T08:16:13.063Z,17.20
2018-11-02T08:18:15.471Z,16.47
2018-11-02T08:20:17.709Z,17.30
2018-11-02T08:22:19.964Z,15.80
2018-11-02T08:24:22.289Z,19.73
2018-11-02T08:26:24.533Z,16.23
2018-11-02T08:28:26.843Z,18.30
2018-11-02T08:30:29.075Z,18.30
2018-11-02T08:32:31.398Z,16.90
2018-11-02T08:34:33.668Z,16.87
2018-11-02T08:36:36.192Z,15.57
2018-11-02T08:38:38.468Z,15.13
2018-11-02T08:40:40.718Z,16.17
2018-11-02T08:42:43.147Z,17.90
2018-11-02T08:44:45.405Z,15.43
2018-11-02T08:46:47.746Z,16.23
2018-11-02T08:48:50.525Z,16.93
2018-11-02T08:50:52.760Z,22.80
2018-11-02T08:52:55.103Z,17.27
2018-11-02T08:54:57.383Z,16.80
2018-11-02T08:56:59.685Z,19.80
2018-11-02T08:59:02.021Z,18.90
2018-11-02T09:01:04.214Z,16.67
2018-11-02T09:03:06.459Z,17.10
2018-11-02T09:05:09.002Z,14.77
2018-11-02T09:07:11.229Z,14.77
2018-11-02T09:09:13.511Z,17.90
2018-11-02T09:11:15.769Z,16.23
2018-11-02T09:13:18.091Z,18.53
2018-11-02T09:15:20.398Z,14.27
2018-11-02T09:17:22.671Z,14.83
2018-11-02T09:19:25.179Z,13.10
2018-11-02T09:21:27.750Z,13.10
2018-11-02T09:23:29.768Z,13.90
2018-11-02T09:25:32.232Z,12.03
2018-11-02T09:27:34.537Z,14.30
2018-11-02T09:29:36.744Z,12.43
2018-11-02T09:31:39.431Z,13.53
2018-11-02T09:33:41.699Z,12.67
2018-11-02T09:35:44.012Z,18.13
2018-11-02T09:37:46.270Z,10.87
2018-11-02T09:39:48.662Z,9.07
2018-11-02T09:41:51.004Z,9.23
2018-11-02T09:43:53.274Z,13.80
2018-11-02T09:45:55.544Z,8.43
2018-11-02T09:47:57.847Z,11.90
2018-11-02T09:50:00.338Z,8.00
2018-11-02T09:52:02.721Z,8.43
2018-11-02T09:54:04.994Z,9.67
2018-11-02T09:56:07.314Z,7.57
2018-11-02T09:58:09.559Z,8.63
2018-11-02T10:00:12.885Z,4.90
2018-11-02T10:02:15.359Z,6.27
2018-11-02T10:04:17.590Z,5.80
2018-11-02T10:06:19.862Z,6.80
2018-11-02T10:08:22.491Z,3.87
2018-11-02T10:10:24.700Z,4.63
2018-11-02T10:12:26.955Z,4.70
2018-11-02T10:14:29.234Z,4.30
2018-11-02T10:16:31.579Z,6.07
2018-11-02T10:18:33.855Z,2.97
2018-11-02T10:20:36.155Z,5.73
2018-11-02T10:22:38.412Z,4.03
2018-11-02T10:24:40.692Z,3.90
2018-11-02T10:26:42.956Z,4.60
2018-11-02T10:28:45.363Z,3.97
2018-11-02T10:30:47.901Z,3.43
2018-11-02T10:32:54.682Z,4.37
2018-11-02T10:34:59.793Z,3.90
2018-11-02T10:37:05.656Z,4.13
2018-11-02T10:39:09.094Z,2.97
2018-11-02T10:41:12.567Z,3.60
2018-11-02T10:43:15.738Z,2.53
2018-11-02T10:45:18.114Z,2.40
2018-11-02T10:47:20.377Z,6.87
2018-11-02T10:49:22.961Z,3.10
2018-11-02T10:51:25.336Z,3.73
2018-11-02T10:53:27.611Z,3.70
2018-11-02T10:55:29.825Z,3.60
2018-11-02T10:57:32.100Z,4.27
2018-11-02T10:59:34.404Z,3.20
2018-11-02T11:01:42.579Z,5.53
2018-11-02T11:03:44.837Z,3.10
2018-11-02T11:05:47.267Z,6.17
2018-11-02T11:07:49.514Z,5.47
2018-11-02T11:09:51.752Z,3.63
2018-11-02T11:11:54.356Z,5.33
2018-11-02T11:13:56.518Z,4.13
2018-11-02T11:15:58.782Z,3.33
2018-11-02T11:18:01.394Z,7.13
2018-11-02T11:20:04.894Z,5.63
2018-11-02T11:22:07.192Z,4.30
2018-11-02T11:24:09.458Z,9.03
2018-11-02T11:26:11.768Z,4.40
2018-11-02T11:28:14.094Z,5.30
2018-11-02T11:30:17.564Z,2.50
2018-11-02T11:32:19.897Z,3.53
2018-11-02T11:34:22.148Z,5.50
2018-11-02T11:36:25.967Z,3.57
2018-11-02T11:38:28.245Z,5.97
2018-11-02T11:40:30.706Z,5.20
2018-11-02T11:42:33.667Z,3.27
2018-11-02T11:44:35.918Z,7.10
2018-11-02T11:46:39.010Z,4.20
2018-11-02T11:48:41.874Z,5.10
2018-11-02T11:50:45.752Z,4.20
2018-11-02T11:52:49.994Z,4.37
2018-11-02T11:54:54.170Z,4.60
2018-11-02T11:56:58.013Z,5.97
2018-11-02T11:59:08.954Z,7.13
2018-11-02T12:01:14.189Z,3.03
2018-11-02T12:03:18.913Z,3.93
2018-11-02T12:05:23.033Z,5.53
2018-11-02T12:07:26.651Z,3.77
2018-11-02T12:09:30.424Z,4.47
2018-11-02T12:11:34.442Z,3.07
2018-11-02T12:13:39.004Z,5.33
2018-11-02T12:16:28.877Z,3.20
2018-11-02T12:18:37.299Z,3.57
2018-11-02T12:20:41.435Z,6.07
2018-11-02T12:22:46.610Z,4.30
2018-11-02T12:24:51.358Z,3.80
2018-11-02T12:27:16.420Z,5.43
2018-11-02T12:31:39.799Z,9.00
2018-11-02T12:33:43.771Z,4.17
2018-11-02T12:42:48.266Z,3.60
2018-11-02T12:44:53.387Z,7.60
2018-11-02T12:46:58.061Z,5.43
2018-11-02T12:49:03.021Z,4.00
2018-11-02T12:51:06.638Z,3.90
2018-11-02T12:53:10.548Z,4.60
2018-11-02T12:55:14.910Z,7.10
2018-11-02T12:57:18.813Z,4.10
2018-11-02T12:59:21.631Z,5.30
2018-11-02T13:01:27.118Z,4.20
2018-11-02T13:03:35.172Z,6.50
2018-11-02T13:05:39.282Z,4.77
2018-11-02T13:07:43.184Z,3.97
2018-11-02T13:09:46.979Z,3.70
2018-11-02T13:11:54.694Z,6.53
2018-11-02T13:13:57.583Z,5.00
2018-11-02T13:16:02.646Z,5.03
2018-11-02T13:31:37.625Z,3.87
2018-11-02T13:33:42.413Z,4.50
2018-11-02T13:35:48.744Z,6.73
2018-11-02T13:37:53.608Z,4.50
2018-11-02T13:39:57.878Z,5.43
2018-11-02T13:42:00.856Z,5.87
2018-11-02T13:44:03.759Z,5.77
2018-11-02T13:46:07.138Z,7.27
2018-11-02T13:48:11.008Z,4.07
2018-11-02T13:50:15.801Z,3.40
2018-11-02T13:52:20.447Z,4.50
2018-11-02T13:54:23.620Z,3.97
2018-11-02T13:56:28.397Z,2.60
2018-11-02T13:58:32.399Z,3.97
2018-11-02T14:00:36.660Z,3.30
2018-11-02T14:02:40.567Z,6.80
2018-11-02T14:04:45.830Z,5.80
2018-11-02T14:06:49.970Z,6.00
2018-11-02T14:08:53.620Z,6.37
2018-11-02T14:10:57.601Z,4.17
2018-11-02T14:13:09.483Z,5.67
2018-11-02T14:15:16.949Z,3.93
2018-11-02T14:17:20.111Z,7.23
2018-11-02T14:19:23.952Z,4.47
2018-11-02T14:21:28.297Z,4.70
2018-11-02T14:23:31.364Z,4.83
2018-11-02T14:25:37.051Z,5.90
2018-11-02T14:27:41.152Z,6.80
2018-11-02T14:29:45.465Z,5.60
2018-11-02T14:31:49.731Z,3.03
2018-11-02T14:33:52.656Z,7.27
2018-11-02T14:35:56.613Z,2.90
2018-11-02T14:38:00.747Z,5.03
2018-11-02T14:40:04.206Z,4.70
2018-11-02T14:42:08.883Z,6.00
2018-11-02T14:44:14.062Z,6.83
2018-11-02T14:46:18.433Z,6.63
2018-11-02T14:48:21.495Z,4.77
2018-11-02T14:50:26.473Z,5.87
2018-11-02T14:52:31.134Z,5.57
2018-11-02T14:54:35.509Z,6.50
2018-11-02T14:56:42.707Z,4.10
2018-11-02T14:58:46.554Z,7.07
2018-11-02T15:00:50.124Z,5.30
2018-11-02T15:02:54.925Z,3.83
2018-11-02T15:04:58.978Z,5.13
2018-11-02T15:09:22.757Z,5.50
2018-11-02T15:11:26.942Z,4.53
2018-11-02T15:13:30.567Z,5.83
2018-11-02T15:15:34.357Z,6.53
2018-11-02T15:17:40.267Z,6.53
2018-11-02T15:19:45.497Z,6.23
2018-11-02T15:21:49.399Z,7.50
2018-11-02T15:23:53.328Z,4.60
2018-11-02T15:25:59.878Z,11.30
2018-11-02T15:28:02.918Z,4.57
2018-11-02T15:30:09.090Z,8.70
2018-11-02T15:32:14.662Z,4.93
2018-11-02T15:34:17.638Z,5.57
2018-11-02T15:36:22.460Z,11.67
2018-11-02T15:38:27.663Z,6.93
2018-11-02T15:40:30.870Z,8.70
2018-11-02T15:42:35.703Z,6.07
2018-11-02T15:44:42.931Z,5.67
2018-11-02T15:46:46.471Z,6.07
2018-11-02T15:48:51.231Z,7.20
2018-11-02T15:50:55.162Z,6.53
2018-11-02T15:53:02.060Z,7.97
2018-11-02T15:55:07.093Z,6.00
2018-11-02T15:57:12.436Z,9.07
2018-11-02T15:59:18.701Z,5.20
2018-11-02T16:01:23.377Z,3.43
2018-11-02T16:03:32.088Z,6.37
2018-11-02T16:05:36.101Z,7.50
2018-11-02T16:07:43.084Z,5.10
2018-11-02T16:09:47.034Z,6.47
2018-11-02T16:11:52.063Z,8.70
2018-11-02T16:13:57.495Z,8.40
2018-11-02T16:16:01.176Z,7.83
2018-11-02T16:18:07.238Z,6.47
2018-11-02T16:20:19.509Z,6.70
2018-11-02T16:22:24.026Z,8.67
2018-11-02T16:26:41.665Z,10.00
2018-11-02T16:28:46.260Z,5.60
2018-11-02T16:30:52.650Z,6.80
2018-11-02T16:32:58.031Z,6.67
2018-11-02T16:35:02.098Z,9.80
2018-11-02T16:37:09.220Z,6.43
2018-11-02T16:39:13.468Z,7.80
2018-11-02T16:41:20.091Z,14.50
2018-11-02T16:43:24.096Z,6.27
2018-11-02T16:45:32.322Z,8.53
2018-11-02T16:47:37.389Z,7.73
2018-11-02T16:49:40.721Z,10.83
2018-11-02T16:51:43.781Z,12.53
2018-11-02T16:53:47.203Z,7.60
2018-11-02T16:55:58.018Z,9.47
2018-11-02T16:58:00.468Z,7.50
2018-11-02T17:00:03.014Z,11.23
2018-11-02T17:02:05.206Z,8.47
2018-11-02T17:04:07.420Z,7.03
2018-11-02T17:06:10.069Z,7.70
2018-11-02T17:08:12.182Z,8.67
2018-11-02T17:10:14.874Z,15.43
2018-11-02T17:12:17.111Z,7.43
2018-11-02T17:14:19.345Z,10.73
2018-11-02T17:16:21.523Z,9.67
2018-11-02T17:18:23.783Z,7.40
2018-11-02T17:20:25.927Z,9.43
2018-11-02T17:22:28.121Z,5.60
2018-11-02T17:24:30.923Z,8.17
2018-11-02T17:26:33.364Z,6.37
2018-11-02T17:28:35.627Z,7.43
2018-11-02T17:30:37.858Z,8.00
2018-11-02T17:32:40.070Z,10.50
2018-11-02T17:34:42.274Z,12.40
2018-11-02T17:36:44.580Z,10.47
2018-11-02T17:38:46.915Z,11.00
2018-11-02T17:40:49.094Z,10.17
2018-11-02T17:42:51.278Z,12.97
2018-11-02T17:44:53.555Z,11.97
2018-11-02T17:46:55.789Z,9.47
2018-11-02T17:48:57.979Z,8.23
2018-11-02T17:51:00.304Z,9.50
2018-11-02T17:53:02.527Z,10.90
2018-11-02T17:55:04.761Z,7.90
2018-11-02T17:57:06.996Z,11.53
2018-11-02T17:59:09.634Z,13.10
2018-11-02T18:01:11.811Z,9.23
2018-11-02T18:03:14.027Z,9.13
2018-11-02T18:05:16.562Z,8.87
2018-11-02T18:07:18.745Z,14.63
2018-11-02T18:09:20.926Z,7.57
2018-11-02T18:11:23.122Z,12.83
2018-11-02T18:13:25.466Z,8.53
2018-11-02T18:15:27.626Z,8.73
2018-11-02T18:17:29.806Z,8.93
2018-11-02T18:19:32.321Z,11.13
2018-11-02T18:21:34.519Z,12.00
2018-11-02T18:23:36.690Z,10.80
2018-11-02T18:25:38.898Z,17.90
2018-11-02T18:27:41.976Z,13.87
2018-11-02T18:29:44.207Z,17.47
2018-11-02T18:31:46.618Z,14.40
2018-11-02T18:33:48.793Z,10.63
2018-11-02T18:35:50.961Z,7.57
2018-11-02T18:37:53.485Z,10.00
2018-11-02T18:39:59.804Z,7.77
2018-11-02T18:42:02.076Z,10.17
2018-11-02T18:44:05.147Z,8.90
2018-11-02T18:46:07.438Z,9.83
2018-11-02T18:48:09.656Z,8.60
2018-11-02T18:50:14.411Z,10.58
2018-11-02T18:52:16.646Z,8.37
2018-11-02T18:54:18.880Z,7.12
2018-11-02T18:56:21.210Z,9.45
2018-11-02T18:58:23.384Z,10.48
2018-11-02T19:00:25.629Z,6.90
2018-11-02T19:02:27.881Z,12.75
2018-11-02T19:04:30.080Z,7.35
2018-11-02T19:06:32.263Z,12.00
2018-11-02T19:08:34.777Z,12.98
2018-11-02T19:10:37.145Z,7.47
2018-11-02T19:12:40.445Z,9.73
2018-11-02T19:14:43.069Z,7.60
2018-11-02T19:16:45.566Z,7.35
2018-11-02T19:18:49.520Z,15.20
2018-11-02T19:20:52.018Z,7.45
2018-11-02T19:22:57.220Z,9.00
2018-11-02T19:25:00.070Z,8.60
2018-11-02T19:27:04.770Z,14.55
2018-11-02T19:29:11.040Z,12.85
2018-11-02T19:31:18.365Z,10.53
2018-11-02T19:33:23.564Z,8.18
2018-11-02T19:35:30.127Z,7.65
2018-11-02T19:37:33.984Z,7.40
2018-11-02T19:39:36.641Z,7.50
2018-11-02T19:41:44.602Z,12.33
2018-11-02T19:43:50.933Z,7.87
2018-11-02T19:46:04.422Z,6.92
2018-11-02T19:48:10.174Z,10.30
2018-11-02T19:50:21.033Z,8.98
2018-11-02T19:52:31.971Z,7.20
2018-11-02T19:54:38.135Z,9.68
2018-11-02T19:56:41.882Z,10.30
2018-11-02T19:58:45.982Z,8.70
2018-11-02T20:00:48.485Z,9.45
2018-11-02T20:02:50.950Z,6.67
2018-11-02T20:05:00.083Z,7.55
2018-11-02T20:07:09.093Z,7.60
2018-11-02T20:09:12.608Z,10.98
2018-11-02T20:11:15.530Z,15.88
2018-11-02T20:13:17.922Z,13.48
2018-11-02T20:15:20.416Z,11.48
2018-11-02T20:17:22.909Z,9.40
2018-11-02T20:19:26.304Z,11.73
2018-11-02T20:21:28.595Z,9.38
2018-11-02T20:23:30.890Z,9.40
2018-11-02T20:25:35.708Z,9.73
2018-11-02T20:27:38.134Z,8.93
2018-11-02T20:29:40.678Z,10.55
2018-11-02T20:31:43.187Z,8.40
2018-11-02T20:33:45.334Z,10.70
2018-11-02T20:35:49.205Z,10.18
2018-11-02T20:37:51.477Z,12.07
2018-11-02T20:39:53.948Z,6.70
2018-11-02T20:41:56.698Z,9.00
2018-11-02T20:43:59.308Z,10.30
2018-11-02T20:46:01.842Z,10.28
2018-11-02T20:48:04.248Z,7.95
2018-11-02T20:50:07.522Z,9.93
2018-11-02T20:52:09.921Z,7.90
2018-11-02T20:54:12.442Z,7.10
2018-11-02T21:09:51.742Z,7.67
2018-11-02T21:11:54.126Z,7.90
2018-11-02T21:13:58.237Z,7.08
2018-11-02T21:16:00.586Z,7.72
2018-11-02T21:18:06.516Z,7.80
2018-11-02T21:20:13.392Z,6.42
2018-11-02T21:22:15.712Z,8.48
2018-11-02T21:24:18.019Z,6.87
2018-11-02T21:26:20.365Z,9.53
2018-11-02T21:28:22.737Z,6.97
2018-11-02T21:30:26.706Z,8.20
2018-11-02T21:32:28.936Z,10.43
2018-11-02T21:34:31.184Z,7.47
2018-11-02T21:36:33.541Z,8.73
2018-11-02T21:38:35.785Z,9.13
2018-11-02T21:40:38.010Z,11.10
2018-11-02T21:42:40.614Z,8.30
2018-11-02T21:44:42.809Z,8.78
2018-11-02T21:46:44.995Z,8.58
2018-11-02T21:48:47.183Z,7.97
2018-11-02T21:50:49.601Z,10.48
2018-11-02T21:52:51.967Z,7.72
2018-11-02T21:54:54.326Z,8.88
2018-11-02T21:56:56.762Z,8.68
2018-11-02T21:58:59.203Z,8.08
2018-11-02T22:01:01.761Z,11.85
2018-11-02T22:03:05.257Z,12.73
2018-11-02T22:05:10.331Z,9.20
2018-11-02T22:07:13.026Z,8.13
2018-11-02T22:09:15.379Z,9.65
2018-11-02T22:11:17.820Z,10.63
2018-11-02T22:13:20.891Z,8.35
2018-11-02T22:15:23.348Z,9.53
2018-11-02T22:17:25.762Z,11.08
2018-11-02T22:19:28.465Z,11.85
2018-11-02T22:21:31.683Z,7.15
2018-11-02T22:23:34.131Z,9.10
2018-11-02T22:25:38.800Z,10.18
2018-11-02T22:27:41.057Z,10.82
2018-11-02T22:29:43.287Z,8.53
2018-11-02T22:31:45.574Z,9.53
2018-11-02T22:33:47.820Z,7.78
2018-11-02T22:35:50.030Z,7.80
2018-11-02T22:37:52.956Z,7.90
2018-11-02T22:39:55.159Z,9.45
2018-11-02T22:41:57.799Z,9.85
2018-11-02T22:44:00.082Z,8.38
2018-11-02T22:46:02.267Z,9.65
2018-11-02T22:48:10.134Z,9.78
2018-11-02T22:50:12.319Z,9.73
2018-11-02T22:52:14.514Z,10.75
2018-11-02T22:54:16.691Z,10.03
2018-11-02T22:56:18.902Z,9.35
2018-11-02T22:58:21.135Z,12.45
2018-11-02T23:00:23.414Z,15.40
2018-11-02T23:02:25.671Z,12.30
2018-11-02T23:04:28.679Z,8.83
2018-11-02T23:06:30.959Z,11.25
2018-11-02T23:08:33.181Z,16.95
2018-11-02T23:10:35.526Z,10.35
2018-11-02T23:12:45.241Z,10.78
2018-11-02T23:14:47.694Z,10.88
2018-11-02T23:16:49.935Z,12.80
2018-11-02T23:18:52.251Z,12.40
2018-11-02T23:20:54.505Z,11.63
2018-11-02T23:22:56.898Z,9.30
2018-11-02T23:24:59.555Z,11.40
2018-11-02T23:27:01.803Z,10.75
2018-11-02T23:29:05.076Z,11.05
2018-11-02T23:31:07.736Z,8.70
2018-11-02T23:33:09.962Z,10.95
2018-11-02T23:35:12.224Z,11.43
2018-11-02T23:37:16.665Z,9.00
2018-11-02T23:39:18.997Z,14.75
2018-11-02T23:41:21.254Z,8.05
2018-11-02T23:43:23.621Z,14.00
2018-11-02T23:45:25.882Z,8.38
2018-11-02T23:47:28.091Z,10.53
2018-11-02T23:49:30.332Z,8.10
2018-11-02T23:51:32.649Z,9.80
2018-11-02T23:53:34.963Z,15.20
2018-11-02T23:55:37.179Z,10.43
2018-11-02T23:57:39.583Z,14.15
2018-11-02T23:59:41.829Z,9.65
